createdAt,value
2022-08-09T00:00:11.239Z,211.37
2022-08-09T00:06:16.058Z,208.4072
2022-08-09T00:11:24.517Z,203.1926
2022-08-09T00:16:38.287Z,196.4373
2022-08-09T00:21:55.538Z,189.0894
2022-08-09T00:26:59.836Z,183.22295
2022-08-09T00:32:01.757Z,177.3565
2022-08-09T00:37:04.436Z,170.9567
2022-08-09T00:44:19.579Z,165.5643
2022-08-09T00:49:28.232Z,156.0239
2022-08-09T00:54:35.360Z,138.7207
2022-08-09T00:59:46.070Z,112.70665
2022-08-09T01:04:49.017Z,89.95185
2022-08-09T01:09:52.150Z,72.471
2022-08-09T01:14:53.753Z,64.6491
2022-08-09T01:20:02.632Z,60.02705
2022-08-09T01:25:05.049Z,56.64945
2022-08-09T01:30:08.237Z,57.06425
2022-08-09T01:35:28.257Z,59.4938
2022-08-09T01:40:39.980Z,27.7323
2022-08-09T01:45:46.049Z,27.9034
2022-08-09T01:50:55.038Z,31.4441
2022-08-09T01:55:57.336Z,28.143
2022-08-09T02:00:58.999Z,30.0978
2022-08-09T02:06:06.604Z,24.65745
2022-08-09T02:11:16.665Z,24.473
2022-08-09T02:16:19.433Z,19.03265
2022-08-09T02:21:35.775Z,19.8256
2022-08-09T02:26:42.744Z,17.5019
2022-08-09T02:31:44.420Z,18.29485
2022-08-09T02:36:46.128Z,13.8319
2022-08-09T02:41:49.165Z,8.39155
2022-08-09T02:46:52.298Z,12.30115
2022-08-09T02:51:53.972Z,8.8156
2022-08-09T02:56:57.050Z,5.33005
2022-08-09T03:02:06.792Z,4.96115
2022-08-09T03:07:13.967Z,4.59225
2022-08-09T03:12:16.281Z,2.4888
2022-08-09T03:17:26.622Z,1.71845
2022-08-09T03:22:30.355Z,1.2444
2022-08-09T03:27:45.385Z,0.8296
2022-08-09T03:32:47.427Z,0.47405
2022-08-09T03:37:56.127Z,0
2022-08-09T03:42:59.043Z,0
2022-08-09T03:48:00.710Z,0
2022-08-09T03:53:03.026Z,0
2022-08-09T03:58:16.272Z,0
2022-08-09T04:03:24.600Z,0
2022-08-09T04:08:37.500Z,0
2022-08-09T04:14:36.640Z,0
2022-08-09T04:19:50.990Z,0
2022-08-09T04:24:57.670Z,0
2022-08-09T04:29:59.323Z,0
2022-08-09T04:35:01.582Z,0
2022-08-09T04:40:03.311Z,0
2022-08-09T04:45:05.097Z,0
2022-08-09T04:50:06.866Z,0
2022-08-09T04:55:12.147Z,0
2022-08-09T05:00:16.869Z,0
2022-08-09T05:05:31.396Z,0
2022-08-09T05:10:34.298Z,0
2022-08-09T05:15:42.937Z,0
2022-08-09T05:20:49.516Z,0
2022-08-09T05:25:52.514Z,0
2022-08-09T05:30:54.110Z,0
2022-08-09T05:35:57.236Z,0
2022-08-09T05:40:58.903Z,0
2022-08-09T05:46:00.700Z,0
2022-08-09T05:51:30.043Z,0
2022-08-09T05:56:55.252Z,0
2022-08-09T06:01:58.495Z,0
2022-08-09T06:07:00.802Z,0
2022-08-09T06:12:02.740Z,0
2022-08-09T06:17:09.377Z,0
2022-08-09T06:22:15.022Z,0
2022-08-09T06:27:17.279Z,0
2022-08-09T06:32:53.063Z,0
2022-08-09T06:38:06.822Z,0
2022-08-09T06:43:10.413Z,0
2022-08-09T06:48:12.641Z,0
2022-08-09T06:53:18.537Z,0
2022-08-09T06:58:40.643Z,0
2022-08-09T07:06:03.756Z,0
2022-08-09T07:11:07.249Z,0
2022-08-09T07:16:43.863Z,0
2022-08-09T07:21:55.739Z,0
2022-08-09T07:26:59.631Z,0
2022-08-09T07:32:01.680Z,0
2022-08-09T07:37:03.618Z,0
2022-08-09T07:42:05.385Z,0
2022-08-09T07:47:08.119Z,0
2022-08-09T07:52:17.731Z,0
2022-08-09T07:57:19.855Z,0
2022-08-09T08:02:22.094Z,0
2022-08-09T08:08:06.510Z,0
2022-08-09T08:14:01.092Z,0
2022-08-09T08:19:04.417Z,0
2022-08-09T08:24:11.743Z,0
2022-08-09T08:29:20.048Z,0
2022-08-09T08:34:29.344Z,0
2022-08-09T08:39:39.602Z,0
2022-08-09T08:44:46.335Z,0
2022-08-09T08:49:49.344Z,0
2022-08-09T08:54:51.265Z,0
2022-08-09T08:59:53.830Z,0
2022-08-09T09:04:58.983Z,0
2022-08-09T09:10:09.114Z,0
2022-08-09T09:15:12.257Z,0
2022-08-09T09:20:30.459Z,0
2022-08-09T09:26:03.186Z,0
2022-08-09T09:31:17.414Z,0
2022-08-09T09:37:05.920Z,0
2022-08-09T09:42:14.821Z,0
2022-08-09T09:47:21.553Z,0
2022-08-09T09:52:36.565Z,0
2022-08-09T09:58:03.859Z,0
2022-08-09T10:03:11.936Z,0
2022-08-09T10:08:27.784Z,0
2022-08-09T10:13:43.130Z,0
2022-08-09T10:18:51.391Z,0
2022-08-09T10:23:56.197Z,0
2022-08-09T10:29:22.462Z,0
2022-08-09T10:35:31.430Z,0
2022-08-09T10:40:39.000Z,0
2022-08-09T10:45:58.499Z,0
2022-08-09T10:51:01.979Z,0
2022-08-09T10:56:03.594Z,0
2022-08-09T11:03:02.429Z,0
2022-08-09T11:08:18.287Z,0
2022-08-09T11:13:49.891Z,0
2022-08-09T11:18:56.439Z,0
2022-08-09T11:23:58.151Z,0
2022-08-09T11:29:00.417Z,0
2022-08-09T11:34:02.206Z,0
2022-08-09T11:39:04.270Z,0
2022-08-09T11:44:05.948Z,0
2022-08-09T11:49:07.602Z,0
2022-08-09T11:54:27.472Z,0
2022-08-09T11:59:33.819Z,0
2022-08-09T12:04:37.575Z,0
2022-08-09T12:09:39.784Z,0
2022-08-09T12:15:07.393Z,1.16185
2022-08-09T12:20:10.969Z,0.4148
2022-08-09T12:25:18.010Z,0.8296
2022-08-09T12:30:39.610Z,1.2444
2022-08-09T12:35:42.851Z,1.6592
2022-08-09T12:40:44.653Z,2.4888
2022-08-09T12:45:59.719Z,3.25915
2022-08-09T12:51:03.715Z,4.0295
2022-08-09T12:56:11.763Z,4.5628
2022-08-09T13:01:18.057Z,8.63115
2022-08-09T13:06:23.677Z,10.1619
2022-08-09T13:11:26.312Z,10.5308
2022-08-09T13:16:28.264Z,12.06155
2022-08-09T13:22:36.206Z,13.3921
2022-08-09T13:27:48.284Z,28.1469
2022-08-09T13:32:57.298Z,34.54665
2022-08-09T13:37:58.858Z,36.85765
2022-08-09T13:43:03.497Z,38.3391
2022-08-09T13:48:10.818Z,42.96115
2022-08-09T13:53:12.684Z,49.7164
2022-08-09T13:58:14.286Z,68.086
2022-08-09T14:03:58.076Z,66.1898
2022-08-09T14:09:06.322Z,61.8641
2022-08-09T14:14:22.122Z,67.73055
2022-08-09T14:19:33.146Z,65.59725
2022-08-09T14:24:35.493Z,73.9525
2022-08-09T14:30:34.521Z,85.3299
2022-08-09T14:35:52.938Z,91.4333
2022-08-09T14:41:02.010Z,101.98095
2022-08-09T14:46:54.602Z,112.3509
2022-08-09T14:52:06.692Z,132.676
2022-08-09T14:57:08.698Z,134.45385
2022-08-09T15:02:10.340Z,112.5288
2022-08-09T15:07:14.168Z,72.0563
2022-08-09T15:12:18.888Z,73.71545
2022-08-09T15:17:21.856Z,78.63385
2022-08-09T15:22:27.248Z,130.95785
2022-08-09T15:27:28.954Z,146.8389
2022-08-09T15:32:49.118Z,227.4876
2022-08-09T15:37:57.073Z,198.9849
2022-08-09T15:43:14.252Z,154.3051
2022-08-09T15:48:28.235Z,198.98475
2022-08-09T15:54:03.829Z,261.50075
2022-08-09T15:59:09.819Z,266.06355
2022-08-09T16:04:13.633Z,294.27
2022-08-09T16:09:15.692Z,310.151
2022-08-09T16:14:17.301Z,276.13735
2022-08-09T16:19:26.311Z,270.74505
2022-08-09T16:24:33.324Z,262.38985
2022-08-09T16:29:37.860Z,257.64925
2022-08-09T16:34:56.754Z,251.07185
2022-08-09T16:40:05.024Z,244.4352
2022-08-09T16:45:07.913Z,271.6934
2022-08-09T16:50:29.818Z,290.3595
2022-08-09T16:56:00.278Z,297.5889
2022-08-09T17:01:03.656Z,246.50935
2022-08-09T17:06:28.500Z,267.42685
2022-08-09T17:11:41.470Z,274.95255
2022-08-09T17:16:43.706Z,275.30805
2022-08-09T17:21:46.717Z,293.6185
2022-08-09T17:26:52.026Z,297.9443
2022-08-09T17:31:55.484Z,279.2783
2022-08-09T17:37:02.259Z,280.0486
2022-08-09T17:42:04.048Z,265.64905
2022-08-09T17:47:05.712Z,265.1749
2022-08-09T17:52:21.993Z,267.66365
2022-08-09T17:58:03.729Z,263.45635
2022-08-09T18:03:07.446Z,263.1007
2022-08-09T18:08:11.159Z,278.03355
2022-08-09T18:13:43.730Z,204.2588
2022-08-09T18:18:57.610Z,191.81485
2022-08-09T18:24:10.375Z,232.9984
2022-08-09T18:30:39.645Z,179.3116
2022-08-09T18:35:59.098Z,196.14055
2022-08-09T18:41:02.062Z,206.56975
2022-08-09T18:46:49.930Z,146.12765
2022-08-09T18:52:05.096Z,113.18075
2022-08-09T18:57:06.969Z,108.73645
2022-08-09T19:02:10.502Z,106.6624
2022-08-09T19:07:16.605Z,114.6029
2022-08-09T19:12:20.831Z,107.018
2022-08-09T19:17:23.521Z,96.23325
2022-08-09T19:22:33.347Z,93.62595
2022-08-09T19:27:35.104Z,84.79665
2022-08-09T19:32:38.606Z,85.21145
2022-08-09T19:37:54.573Z,86.21885
2022-08-09T19:42:58.282Z,82.2486
2022-08-09T19:48:01.530Z,78.39695
2022-08-09T19:53:04.770Z,78.871
2022-08-09T19:58:06.468Z,91.19645
2022-08-09T20:04:10.523Z,108.7365
2022-08-09T20:09:44.276Z,101.80345
2022-08-09T20:14:50.332Z,83.78935
2022-08-09T20:19:55.024Z,67.61215
2022-08-09T20:24:56.633Z,66.0715
2022-08-09T20:29:58.281Z,73.71565
2022-08-09T20:34:59.928Z,69.15285
2022-08-09T20:40:16.499Z,104.52925
2022-08-09T20:45:57.187Z,123.5507
2022-08-09T20:51:00.996Z,120.35085
2022-08-09T20:56:03.109Z,111.81785
2022-08-09T21:01:33.272Z,125.7432
2022-08-09T21:06:48.941Z,141.62405
2022-08-09T21:18:22.112Z,200.58455
2022-08-09T21:23:47.618Z,143.5796
2022-08-09T21:28:55.681Z,137.59465
2022-08-09T21:33:57.743Z,199.1626
2022-08-09T21:38:59.914Z,153.35705
2022-08-09T21:44:01.796Z,155.43105
2022-08-09T21:49:05.304Z,145.12035
2022-08-09T21:54:09.076Z,147.54985
2022-08-09T21:59:16.093Z,137.1799
2022-08-09T22:04:18.001Z,105.41815
2022-08-09T22:09:22.299Z,72.76755
2022-08-09T22:14:25.443Z,54.9312
2022-08-09T22:19:58.395Z,57.36075
2022-08-09T22:26:06.058Z,75.55265
2022-08-09T22:31:11.427Z,58.2496
2022-08-09T22:36:14.335Z,58.9607
2022-08-09T22:41:21.122Z,77.21185
2022-08-09T22:48:16.014Z,67.73075
2022-08-09T22:53:58.203Z,62.9902
2022-08-09T22:59:05.886Z,69.5677
2022-08-09T23:04:58.220Z,79.81915
2022-08-09T23:09:59.825Z,101.0924
2022-08-09T23:15:01.489Z,107.49215
2022-08-09T23:20:07.190Z,97.2407
2022-08-09T23:25:09.768Z,89.241
2022-08-09T23:30:11.458Z,85.50785
2022-08-09T23:35:13.083Z,80.11545
2022-08-09T23:40:14.729Z,69.80475
2022-08-09T23:45:37.475Z,63.16795
2022-08-09T23:50:40.343Z,40.82805
2022-08-09T23:55:49.273Z,45.21305
